sensor_id;sensor_type;location;lat;lon;timestamp;pressure;altitude;pressure_sealevel;temperature;humidity
57628;BME280;43451;49.060;10.616;2023-09-30T00:01:42;97459.72;;;15.64;100.00
57628;BME280;43451;49.060;10.616;2023-09-30T00:04:32;97470.69;;;15.68;100.00
57628;BME280;43451;49.060;10.616;2023-09-30T00:07:00;97472.25;;;15.65;100.00
57628;BME280;43451;49.060;10.616;2023-09-30T00:09:44;97464.47;;;15.56;100.00
57628;BME280;43451;49.060;10.616;2023-09-30T00:12:10;97466.84;;;15.58;100.00
57628;BME280;43451;49.060;10.616;2023-09-30T00:14:35;97475.75;;;15.66;100.00
57628;BME280;43451;49.060;10.616;2023-09-30T00:17:02;97470.22;;;15.76;100.00
57628;BME280;43451;49.060;10.616;2023-09-30T00:19:46;97477.66;;;15.72;100.00
57628;BME280;43451;49.060;10.616;2023-09-30T00:22:12;97472.28;;;15.62;100.00
57628;BME280;43451;49.060;10.616;2023-09-30T00:24:45;97469.94;;;15.60;100.00
57628;BME280;43451;49.060;10.616;2023-09-30T00:27:11;97471.03;;;15.66;100.00
57628;BME280;43451;49.060;10.616;2023-09-30T00:29:36;97466.38;;;15.63;100.00
57628;BME280;43451;49.060;10.616;2023-09-30T00:32:02;97472.25;;;15.65;100.00
57628;BME280;43451;49.060;10.616;2023-09-30T00:34:27;97468.97;;;15.81;100.00
57628;BME280;43451;49.060;10.616;2023-09-30T00:40:10;97467.94;;;15.64;100.00
57628;BME280;43451;49.060;10.616;2023-09-30T00:42:39;97470.31;;;15.62;100.00
57628;BME280;43451;49.060;10.616;2023-09-30T00:45:12;97467.56;;;15.62;100.00
57628;BME280;43451;49.060;10.616;2023-09-30T00:47:38;97473.13;;;15.55;100.00
57628;BME280;43451;49.060;10.616;2023-09-30T00:50:04;97478.75;;;15.37;100.00
57628;BME280;43451;49.060;10.616;2023-09-30T00:52:58;97468.63;;;15.30;100.00
57628;BME280;43451;49.060;10.616;2023-09-30T00:55:24;97471.03;;;15.25;100.00
57628;BME280;43451;49.060;10.616;2023-09-30T00:57:50;97460.56;;;15.16;100.00
57628;BME280;43451;49.060;10.616;2023-09-30T01:00:16;97460.97;;;15.11;100.00
57628;BME280;43451;49.060;10.616;2023-09-30T01:02:41;97461.75;;;15.12;100.00
57628;BME280;43451;49.060;10.616;2023-09-30T01:05:32;97467.25;;;15.08;100.00
57628;BME280;43451;49.060;10.616;2023-09-30T01:07:57;97459.06;;;15.04;100.00
57628;BME280;43451;49.060;10.616;2023-09-30T01:10:23;97458.31;;;15.04;100.00
57628;BME280;43451;49.060;10.616;2023-09-30T01:12:56;97461.44;;;15.02;100.00
57628;BME280;43451;49.060;10.616;2023-09-30T01:15:21;97464.56;;;15.01;100.00
57628;BME280;43451;49.060;10.616;2023-09-30T01:17:47;97458.34;;;14.97;100.00
57628;BME280;43451;49.060;10.616;2023-09-30T01:20:18;97459.53;;;14.96;100.00
57628;BME280;43451;49.060;10.616;2023-09-30T01:23:13;97461.88;;;14.94;100.00
57628;BME280;43451;49.060;10.616;2023-09-30T01:25:38;97465.78;;;14.96;100.00
57628;BME280;43451;49.060;10.616;2023-09-30T01:28:07;97466.94;;;14.99;100.00
57628;BME280;43451;49.060;10.616;2023-09-30T01:30:34;97460.66;;;15.02;100.00
57628;BME280;43451;49.060;10.616;2023-09-30T01:33:15;97471.13;;;15.14;100.00
57628;BME280;43451;49.060;10.616;2023-09-30T01:35:52;97471.09;;;15.18;100.00
57628;BME280;43451;49.060;10.616;2023-09-30T01:38:44;97465.59;;;15.21;100.00
57628;BME280;43451;49.060;10.616;2023-09-30T01:41:28;97471.06;;;15.21;100.00
57628;BME280;43451;49.060;10.616;2023-09-30T01:43:54;97475.69;;;15.28;100.00
57628;BME280;43451;49.060;10.616;2023-09-30T01:46:21;97467.47;;;15.28;100.00
57628;BME280;43451;49.060;10.616;2023-09-30T01:49:05;97471.75;;;15.32;100.00
57628;BME280;43451;49.060;10.616;2023-09-30T01:51:45;97470.16;;;15.39;100.00
57628;BME280;43451;49.060;10.616;2023-09-30T01:57:45;97467.44;;;15.31;100.00
57628;BME280;43451;49.060;10.616;2023-09-30T02:00:10;97469.41;;;15.31;100.00
57628;BME280;43451;49.060;10.616;2023-09-30T02:02:37;97474.91;;;15.27;100.00
57628;BME280;43451;49.060;10.616;2023-09-30T02:05:03;97474.59;;;15.18;100.00
57628;BME280;43451;49.060;10.616;2023-09-30T02:07:45;97476.59;;;15.14;100.00
57628;BME280;43451;49.060;10.616;2023-09-30T02:10:10;97471.78;;;15.29;100.00
57628;BME280;43451;49.060;10.616;2023-09-30T02:12:40;97478.31;;;15.42;100.00
57628;BME280;43451;49.060;10.616;2023-09-30T02:21:32;97462.25;;;15.44;100.00
57628;BME280;43451;49.060;10.616;2023-09-30T02:23:57;97475.63;;;15.39;100.00
57628;BME280;43451;49.060;10.616;2023-09-30T02:26:23;97476.44;;;15.36;100.00
57628;BME280;43451;49.060;10.616;2023-09-30T02:28:56;97475.66;;;15.35;100.00
57628;BME280;43451;49.060;10.616;2023-09-30T02:31:22;97475.66;;;15.35;100.00
57628;BME280;43451;49.060;10.616;2023-09-30T02:33:49;97470.69;;;15.64;100.00
57628;BME280;43451;49.060;10.616;2023-09-30T02:39:55;97468.47;;;15.52;100.00
57628;BME280;43451;49.060;10.616;2023-09-30T02:42:20;97471.53;;;15.58;100.00
57628;BME280;43451;49.060;10.616;2023-09-30T02:47:37;97468.53;;;15.45;100.00
57628;BME280;43451;49.060;10.616;2023-09-30T02:50:17;97481.03;;;15.46;100.00
57628;BME280;43451;49.060;10.616;2023-09-30T02:52:43;97484.16;;;15.48;100.00
57628;BME280;43451;49.060;10.616;2023-09-30T02:55:15;97485.72;;;15.45;100.00
57628;BME280;43451;49.060;10.616;2023-09-30T02:57:40;97484.56;;;15.43;100.00
57628;BME280;43451;49.060;10.616;2023-09-30T03:00:06;97491.22;;;15.45;100.00
57628;BME280;43451;49.060;10.616;2023-09-30T03:02:54;97487.31;;;15.43;100.00
57628;BME280;43451;49.060;10.616;2023-09-30T03:05:20;97483.38;;;15.44;100.00
57628;BME280;43451;49.060;10.616;2023-09-30T03:07:47;97493.94;;;15.45;100.00
57628;BME280;43451;49.060;10.616;2023-09-30T03:10:12;97506.69;;;15.63;100.00
57628;BME280;43451;49.060;10.616;2023-09-30T03:13:18;97505.84;;;15.73;100.00
57628;BME280;43451;49.060;10.616;2023-09-30T03:15:46;97516.03;;;15.72;100.00
57628;BME280;43451;49.060;10.616;2023-09-30T03:18:15;97520.72;;;15.72;100.00
57628;BME280;43451;49.060;10.616;2023-09-30T03:20:42;97528.19;;;15.71;100.00
57628;BME280;43451;49.060;10.616;2023-09-30T03:23:08;97516.88;;;15.62;100.00
57628;BME280;43451;49.060;10.616;2023-09-30T03:25:34;97522.78;;;15.61;100.00
57628;BME280;43451;49.060;10.616;2023-09-30T03:28:23;97525.91;;;15.59;100.00
57628;BME280;43451;49.060;10.616;2023-09-30T03:30:49;97517.44;;;15.88;100.00
57628;BME280;43451;49.060;10.616;2023-09-30T03:33:14;97524.63;;;15.74;100.00
57628;BME280;43451;49.060;10.616;2023-09-30T03:35:40;97525.84;;;15.66;100.00
57628;BME280;43451;49.060;10.616;2023-09-30T03:38:06;97524.34;;;15.58;100.00
57628;BME280;43451;49.060;10.616;2023-09-30T03:40:48;97523.19;;;15.55;100.00
57628;BME280;43451;49.060;10.616;2023-09-30T03:43:14;97524.38;;;15.54;100.00
57628;BME280;43451;49.060;10.616;2023-09-30T03:45:40;97535.66;;;15.60;100.00
57628;BME280;43451;49.060;10.616;2023-09-30T03:48:06;97533.41;;;15.51;100.00
57628;BME280;43451;49.060;10.616;2023-09-30T03:50:32;97544.44;;;15.41;100.00
57628;BME280;43451;49.060;10.616;2023-09-30T03:53:02;97534.25;;;15.45;100.00
57628;BME280;43451;49.060;10.616;2023-09-30T03:55:27;97533.44;;;15.48;100.00
57628;BME280;43451;49.060;10.616;2023-09-30T03:57:55;97529.69;;;15.27;100.00
57628;BME280;43451;49.060;10.616;2023-09-30T04:00:21;97525.03;;;15.21;100.00
57628;BME280;43451;49.060;10.616;2023-09-30T04:02:47;97531.34;;;15.14;100.00
57628;BME280;43451;49.060;10.616;2023-09-30T04:05:14;97537.66;;;15.04;100.00
57628;BME280;43451;49.060;10.616;2023-09-30T04:07:51;97536.47;;;15.05;100.00
57628;BME280;43451;49.060;10.616;2023-09-30T04:10:53;97547.44;;;15.05;100.00
57628;BME280;43451;49.060;10.616;2023-09-30T04:13:31;97548.63;;;14.97;100.00
57628;BME280;43451;49.060;10.616;2023-09-30T04:15:56;97556.53;;;14.84;100.00
57628;BME280;43451;49.060;10.616;2023-09-30T04:18:23;97554.56;;;14.88;100.00
57628;BME280;43451;49.060;10.616;2023-09-30T04:20:51;97553.44;;;14.82;100.00
57628;BME280;43451;49.060;10.616;2023-09-30T04:23:27;97558.13;;;14.81;100.00
57628;BME280;43451;49.060;10.616;2023-09-30T04:25:52;97556.59;;;14.73;100.00
57628;BME280;43451;49.060;10.616;2023-09-30T04:28:35;97563.56;;;14.89;100.00
57628;BME280;43451;49.060;10.616;2023-09-30T04:31:00;97558.00;;;15.06;100.00
57628;BME280;43451;49.060;10.616;2023-09-30T04:33:27;97558.78;;;15.00;100.00
57628;BME280;43451;49.060;10.616;2023-09-30T04:36:09;97556.09;;;14.93;100.00
57628;BME280;43451;49.060;10.616;2023-09-30T04:38:55;97559.59;;;14.97;100.00
57628;BME280;43451;49.060;10.616;2023-09-30T04:41:41;97560.47;;;14.79;100.00
57628;BME280;43451;49.060;10.616;2023-09-30T04:44:16;97562.66;;;15.06;100.00
57628;BME280;43451;49.060;10.616;2023-09-30T04:46:42;97570.53;;;14.93;100.00
57628;BME280;43451;49.060;10.616;2023-09-30T04:49:12;97564.31;;;14.93;100.00
57628;BME280;43451;49.060;10.616;2023-09-30T04:51:52;97565.84;;;15.01;100.00
57628;BME280;43451;49.060;10.616;2023-09-30T04:54:18;97572.84;;;15.02;100.00
57628;BME280;43451;49.060;10.616;2023-09-30T04:56:43;97575.53;;;15.09;100.00
57628;BME280;43451;49.060;10.616;2023-09-30T04:59:08;97568.91;;;15.10;100.00
57628;BME280;43451;49.060;10.616;2023-09-30T05:01:34;97582.28;;;14.90;100.00
57628;BME280;43451;49.060;10.616;2023-09-30T05:04:28;97595.63;;;14.81;100.00
57628;BME280;43451;49.060;10.616;2023-09-30T05:06:54;97594.06;;;14.83;100.00
57628;BME280;43451;49.060;10.616;2023-09-30T05:09:20;97598.75;;;14.79;100.00
57628;BME280;43451;49.060;10.616;2023-09-30T05:11:46;97600.72;;;14.82;100.00
57628;BME280;43451;49.060;10.616;2023-09-30T05:14:11;97596.75;;;14.94;100.00
57628;BME280;43451;49.060;10.616;2023-09-30T05:16:37;97593.66;;;14.85;100.00
57628;BME280;43451;49.060;10.616;2023-09-30T05:19:02;97598.22;;;15.06;100.00
57628;BME280;43451;49.060;10.616;2023-09-30T05:21:29;97603.38;;;14.93;100.00
57628;BME280;43451;49.060;10.616;2023-09-30T05:23:55;97601.78;;;15.03;100.00
57628;BME280;43451;49.060;10.616;2023-09-30T05:26:21;97614.75;;;14.88;100.00
57628;BME280;43451;49.060;10.616;2023-09-30T05:28:47;97622.19;;;14.80;100.00
57628;BME280;43451;49.060;10.616;2023-09-30T05:31:12;97623.03;;;14.67;100.00
57628;BME280;43451;49.060;10.616;2023-09-30T05:33:37;97624.94;;;14.80;100.00
57628;BME280;43451;49.060;10.616;2023-09-30T05:36:03;97620.69;;;14.69;100.00
57628;BME280;43451;49.060;10.616;2023-09-30T05:38:29;97621.47;;;14.73;100.00
57628;BME280;43451;49.060;10.616;2023-09-30T05:44:19;97619.47;;;14.80;100.00
57628;BME280;43451;49.060;10.616;2023-09-30T05:46:44;97626.91;;;14.76;100.00
57628;BME280;43451;49.060;10.616;2023-09-30T05:49:20;97626.94;;;14.73;100.00
57628;BME280;43451;49.060;10.616;2023-09-30T05:51:45;97632.41;;;14.69;100.00
57628;BME280;43451;49.060;10.616;2023-09-30T05:54:11;97628.88;;;14.76;100.00
57628;BME280;43451;49.060;10.616;2023-09-30T05:56:46;97620.66;;;14.76;100.00
57628;BME280;43451;49.060;10.616;2023-09-30T05:59:12;97605.78;;;14.80;100.00
57628;BME280;43451;49.060;10.616;2023-09-30T06:01:38;97612.50;;;14.69;100.00
57628;BME280;43451;49.060;10.616;2023-09-30T06:04:09;97614.03;;;14.73;100.00
57628;BME280;43451;49.060;10.616;2023-09-30T06:06:34;97622.25;;;14.70;100.00
57628;BME280;43451;49.060;10.616;2023-09-30T06:09:04;97619.91;;;14.68;100.00
57628;BME280;43451;49.060;10.616;2023-09-30T06:11:33;97615.56;;;14.74;100.00
57628;BME280;43451;49.060;10.616;2023-09-30T06:13:59;97625.75;;;14.70;100.00
57628;BME280;43451;49.060;10.616;2023-09-30T06:16:28;97636.72;;;14.63;100.00
57628;BME280;43451;49.060;10.616;2023-09-30T06:18:57;97635.94;;;14.66;100.00
57628;BME280;43451;49.060;10.616;2023-09-30T06:21:24;97633.56;;;14.75;100.00
57628;BME280;43451;49.060;10.616;2023-09-30T06:23:50;97640.19;;;14.81;100.00
57628;BME280;43451;49.060;10.616;2023-09-30T06:26:27;97642.47;;;14.94;100.00
57628;BME280;43451;49.060;10.616;2023-09-30T06:32:43;97647.16;;;14.93;100.00
57628;BME280;43451;49.060;10.616;2023-09-30T06:35:28;97648.75;;;14.91;100.00
57628;BME280;43451;49.060;10.616;2023-09-30T06:41:04;97652.63;;;14.97;100.00
57628;BME280;43451;49.060;10.616;2023-09-30T06:43:40;97657.31;;;14.96;100.00
57628;BME280;43451;49.060;10.616;2023-09-30T06:46:08;97659.25;;;14.99;100.00
57628;BME280;43451;49.060;10.616;2023-09-30T06:48:52;97666.66;;;15.13;100.00
57628;BME280;43451;49.060;10.616;2023-09-30T06:51:40;97679.84;;;15.32;100.00
57628;BME280;43451;49.060;10.616;2023-09-30T06:54:08;97674.41;;;15.29;100.00
57628;BME280;43451;49.060;10.616;2023-09-30T06:56:51;97675.56;;;15.24;100.00
57628;BME280;43451;49.060;10.616;2023-09-30T06:59:20;97672.84;;;15.24;100.00
57628;BME280;43451;49.060;10.616;2023-09-30T07:01:51;97678.75;;;15.19;100.00
57628;BME280;43451;49.060;10.616;2023-09-30T07:10:57;97684.22;;;15.19;100.00
57628;BME280;43451;49.060;10.616;2023-09-30T07:13:27;97687.78;;;15.05;100.00
57628;BME280;43451;49.060;10.616;2023-09-30T07:15:57;97694.41;;;15.08;100.00
57628;BME280;43451;49.060;10.616;2023-09-30T07:18:27;97688.53;;;15.13;100.00
57628;BME280;43451;49.060;10.616;2023-09-30T07:21:06;97694.03;;;15.06;100.00
57628;BME280;43451;49.060;10.616;2023-09-30T07:23:32;97695.59;;;15.11;100.00
57628;BME280;43451;49.060;10.616;2023-09-30T07:25:58;97693.91;;;15.31;100.00
57628;BME280;43451;49.060;10.616;2023-09-30T07:28:30;97691.59;;;15.29;100.00
57628;BME280;43451;49.060;10.616;2023-09-30T07:30:56;97702.47;;;15.44;100.00
57628;BME280;43451;49.060;10.616;2023-09-30T07:33:23;97691.97;;;15.35;100.00
57628;BME280;43451;49.060;10.616;2023-09-30T07:35:50;97698.91;;;15.54;100.00
57628;BME280;43451;49.060;10.616;2023-09-30T07:38:16;97703.16;;;15.62;100.00
57628;BME280;43451;49.060;10.616;2023-09-30T07:40:43;97702.75;;;15.64;100.00
57628;BME280;43451;49.060;10.616;2023-09-30T07:43:10;97719.53;;;15.73;100.00
57628;BME280;43451;49.060;10.616;2023-09-30T07:45:38;97720.28;;;15.84;100.00
57628;BME280;43451;49.060;10.616;2023-09-30T07:48:09;97716.38;;;15.82;100.00
57628;BME280;43451;49.060;10.616;2023-09-30T07:50:35;97724.19;;;15.83;100.00
57628;BME280;43451;49.060;10.616;2023-09-30T07:53:01;97724.22;;;15.76;100.00
57628;BME280;43451;49.060;10.616;2023-09-30T07:55:34;97727.75;;;15.76;100.00
57628;BME280;43451;49.060;10.616;2023-09-30T07:58:00;97726.59;;;15.74;100.00
57628;BME280;43451;49.060;10.616;2023-09-30T08:00:36;97733.69;;;15.68;100.00
57628;BME280;43451;49.060;10.616;2023-09-30T08:03:02;97735.22;;;15.69;100.00
57628;BME280;43451;49.060;10.616;2023-09-30T08:05:29;97740.31;;;15.70;100.00
57628;BME280;43451;49.060;10.616;2023-09-30T08:07:55;97753.22;;;15.73;100.00
57628;BME280;43451;49.060;10.616;2023-09-30T08:10:21;97749.69;;;15.73;100.00
57628;BME280;43451;49.060;10.616;2023-09-30T08:12:50;97734.88;;;15.67;100.00
57628;BME280;43451;49.060;10.616;2023-09-30T08:15:16;97736.41;;;15.64;100.00
57628;BME280;43451;49.060;10.616;2023-09-30T08:17:41;97743.03;;;15.74;100.00
57628;BME280;43451;49.060;10.616;2023-09-30T08:20:08;97737.53;;;15.77;100.00
57628;BME280;43451;49.060;10.616;2023-09-30T08:22:34;97729.72;;;15.72;100.00
57628;BME280;43451;49.060;10.616;2023-09-30T08:25:05;97745.34;;;15.79;100.00
57628;BME280;43451;49.060;10.616;2023-09-30T08:27:36;97740.63;;;15.87;100.00
57628;BME280;43451;49.060;10.616;2023-09-30T08:30:02;97740.13;;;16.02;100.00
57628;BME280;43451;49.060;10.616;2023-09-30T08:32:33;97742.72;;;16.20;100.00
57628;BME280;43451;49.060;10.616;2023-09-30T08:34:58;97741.41;;;16.36;100.00
57628;BME280;43451;49.060;10.616;2023-09-30T08:37:24;97738.66;;;16.43;100.00
57628;BME280;43451;49.060;10.616;2023-09-30T08:39:49;97743.31;;;16.46;100.00
57628;BME280;43451;49.060;10.616;2023-09-30T08:42:16;97755.28;;;16.66;100.00
57628;BME280;43451;49.060;10.616;2023-09-30T08:44:44;97761.25;;;16.54;100.00
57628;BME280;43451;49.060;10.616;2023-09-30T08:47:09;97757.31;;;16.55;100.00
57628;BME280;43451;49.060;10.616;2023-09-30T08:49:37;97752.66;;;16.52;100.00
57628;BME280;43451;49.060;10.616;2023-09-30T08:52:06;97747.16;;;16.52;100.00
57628;BME280;43451;49.060;10.616;2023-09-30T08:54:39;97736.19;;;16.52;100.00
57628;BME280;43451;49.060;10.616;2023-09-30T08:57:12;97730.50;;;16.74;100.00
57628;BME280;43451;49.060;10.616;2023-09-30T08:59:46;97725.09;;;16.66;100.00
57628;BME280;43451;49.060;10.616;2023-09-30T09:02:14;97735.69;;;16.64;100.00
57628;BME280;43451;49.060;10.616;2023-09-30T09:04:40;97731.69;;;16.76;100.00
57628;BME280;43451;49.060;10.616;2023-09-30T09:07:07;97722.28;;;16.74;100.00
57628;BME280;43451;49.060;10.616;2023-09-30T09:09:37;97723.53;;;16.65;100.00
57628;BME280;43451;49.060;10.616;2023-09-30T09:12:03;97735.22;;;16.77;100.00
57628;BME280;43451;49.060;10.616;2023-09-30T09:14:42;97729.94;;;16.93;100.00
57628;BME280;43451;49.060;10.616;2023-09-30T09:17:15;97719.16;;;17.13;100.00
57628;BME280;43451;49.060;10.616;2023-09-30T09:19:43;97712.50;;;17.41;100.00
57628;BME280;43451;49.060;10.616;2023-09-30T09:22:12;97711.09;;;17.29;100.00
57628;BME280;43451;49.060;10.616;2023-09-30T09:24:39;97709.13;;;17.30;100.00
57628;BME280;43451;49.060;10.616;2023-09-30T09:27:06;97711.81;;;17.33;100.00
57628;BME280;43451;49.060;10.616;2023-09-30T09:29:32;97706.66;;;17.39;100.00
57628;BME280;43451;49.060;10.616;2023-09-30T09:32:15;97713.25;;;17.45;100.00
57628;BME280;43451;49.060;10.616;2023-09-30T09:34:43;97723.97;;;17.63;100.00
57628;BME280;43451;49.060;10.616;2023-09-30T09:37:21;97716.44;;;17.71;100.00
57628;BME280;43451;49.060;10.616;2023-09-30T09:39:52;97702.94;;;17.83;100.00
57628;BME280;43451;49.060;10.616;2023-09-30T09:42:25;97708.00;;;17.85;100.00
57628;BME280;43451;49.060;10.616;2023-09-30T09:44:54;97708.81;;;18.09;96.04
57628;BME280;43451;49.060;10.616;2023-09-30T09:47:21;97716.84;;;18.23;91.45
57628;BME280;43451;49.060;10.616;2023-09-30T09:49:47;97715.06;;;17.86;96.86
57628;BME280;43451;49.060;10.616;2023-09-30T09:52:13;97695.16;;;17.75;100.00
57628;BME280;43451;49.060;10.616;2023-09-30T09:54:40;97710.75;;;17.85;100.00
57628;BME280;43451;49.060;10.616;2023-09-30T09:57:10;97713.91;;;18.10;100.00
57628;BME280;43451;49.060;10.616;2023-09-30T09:59:39;97705.00;;;18.26;100.00
57628;BME280;43451;49.060;10.616;2023-09-30T10:02:10;97703.94;;;18.44;100.00
57628;BME280;43451;49.060;10.616;2023-09-30T10:04:37;97713.66;;;18.48;96.92
57628;BME280;43451;49.060;10.616;2023-09-30T10:07:04;97707.22;;;18.59;93.04
57628;BME280;43451;49.060;10.616;2023-09-30T10:09:34;97709.19;;;18.58;94.32
57628;BME280;43451;49.060;10.616;2023-09-30T10:12:03;97700.97;;;18.54;92.56
57628;BME280;43451;49.060;10.616;2023-09-30T10:14:35;97699.47;;;18.30;95.61
57628;BME280;43451;49.060;10.616;2023-09-30T10:17:02;97696.72;;;18.30;84.91
57628;BME280;43451;49.060;10.616;2023-09-30T10:19:28;97703.56;;;18.18;92.08
57628;BME280;43451;49.060;10.616;2023-09-30T10:24:51;97694.06;;;18.46;96.75
57628;BME280;43451;49.060;10.616;2023-09-30T10:29:57;97707.81;;;18.46;92.63
57628;BME280;43451;49.060;10.616;2023-09-30T10:35:18;97709.00;;;18.69;90.08
57628;BME280;43451;49.060;10.616;2023-09-30T10:37:44;97715.59;;;18.75;78.75
57628;BME280;43451;49.060;10.616;2023-09-30T10:40:26;97719.53;;;18.50;80.20
57628;BME280;43451;49.060;10.616;2023-09-30T10:42:53;97715.53;;;18.31;84.34
57628;BME280;43451;49.060;10.616;2023-09-30T10:51:19;97700.88;;;18.38;93.80
57628;BME280;43451;49.060;10.616;2023-09-30T10:53:51;97705.41;;;18.48;90.68
57628;BME280;43451;49.060;10.616;2023-09-30T10:56:18;97701.53;;;18.69;83.50
57628;BME280;43451;49.060;10.616;2023-09-30T10:58:52;97705.81;;;19.14;77.85
57628;BME280;43451;49.060;10.616;2023-09-30T11:01:22;97703.03;;;19.34;78.41
57628;BME280;43451;49.060;10.616;2023-09-30T11:03:49;97702.38;;;19.46;76.41
57628;BME280;43451;49.060;10.616;2023-09-30T11:06:20;97696.69;;;19.37;75.85
57628;BME280;43451;49.060;10.616;2023-09-30T11:08:53;97688.53;;;19.49;77.90
57628;BME280;43451;49.060;10.616;2023-09-30T11:11:53;97685.88;;;19.62;75.86
57628;BME280;43451;49.060;10.616;2023-09-30T11:14:27;97683.72;;;19.54;73.25
57628;BME280;43451;49.060;10.616;2023-09-30T11:16:56;97677.75;;;19.75;67.38
57628;BME280;43451;49.060;10.616;2023-09-30T11:19:22;97661.13;;;19.79;71.14
57628;BME280;43451;49.060;10.616;2023-09-30T11:21:54;97663.47;;;19.97;72.54
57628;BME280;43451;49.060;10.616;2023-09-30T11:24:24;97653.47;;;20.03;69.56
57628;BME280;43451;49.060;10.616;2023-09-30T11:26:53;97655.38;;;19.89;71.68
57628;BME280;43451;49.060;10.616;2023-09-30T11:29:22;97660.03;;;19.92;68.16
57628;BME280;43451;49.060;10.616;2023-09-30T11:31:48;97654.84;;;19.78;73.30
57628;BME280;43451;49.060;10.616;2023-09-30T11:34:17;97653.66;;;19.96;65.61
57628;BME280;43451;49.060;10.616;2023-09-30T11:36:48;97647.00;;;20.09;63.44
57628;BME280;43451;49.060;10.616;2023-09-30T11:39:26;97637.75;;;20.16;63.59
57628;BME280;43451;49.060;10.616;2023-09-30T11:41:54;97640.53;;;20.00;71.54
57628;BME280;43451;49.060;10.616;2023-09-30T11:44:22;97635.88;;;20.13;69.90
57628;BME280;43451;49.060;10.616;2023-09-30T11:49:34;97631.69;;;20.37;58.49
57628;BME280;43451;49.060;10.616;2023-09-30T11:52:03;97630.94;;;20.37;62.24
57628;BME280;43451;49.060;10.616;2023-09-30T11:54:39;97619.97;;;20.33;66.92
57628;BME280;43451;49.060;10.616;2023-09-30T11:57:10;97630.97;;;20.50;60.75
57628;BME280;43451;49.060;10.616;2023-09-30T11:59:37;97635.13;;;20.41;62.28
57628;BME280;43451;49.060;10.616;2023-09-30T12:02:03;97636.69;;;20.43;61.58
57628;BME280;43451;49.060;10.616;2023-09-30T12:04:31;97633.78;;;20.33;62.76
57628;BME280;43451;49.060;10.616;2023-09-30T12:06:57;97636.09;;;20.35;62.65
57628;BME280;43451;49.060;10.616;2023-09-30T12:09:23;97643.81;;;20.11;66.37
57628;BME280;43451;49.060;10.616;2023-09-30T12:11:52;97643.13;;;20.07;63.55
57628;BME280;43451;49.060;10.616;2023-09-30T12:14:20;97640.34;;;20.07;61.97
57628;BME280;43451;49.060;10.616;2023-09-30T12:16:46;97658.63;;;20.17;63.97
57628;BME280;43451;49.060;10.616;2023-09-30T12:19:16;97650.09;;;20.11;59.44
57628;BME280;43451;49.060;10.616;2023-09-30T12:21:43;97656.41;;;19.96;61.18
57628;BME280;43451;49.060;10.616;2023-09-30T12:24:13;97668.28;;;20.09;62.83
57628;BME280;43451;49.060;10.616;2023-09-30T12:26:46;97670.53;;;19.98;60.59
57628;BME280;43451;49.060;10.616;2023-09-30T12:29:15;97684.41;;;19.94;62.05
57628;BME280;43451;49.060;10.616;2023-09-30T12:31:47;97674.16;;;19.94;57.71
57628;BME280;43451;49.060;10.616;2023-09-30T12:34:13;97663.63;;;19.73;60.98
57628;BME280;43451;49.060;10.616;2023-09-30T12:36:42;97658.81;;;19.77;57.76
57628;BME280;43451;49.060;10.616;2023-09-30T12:39:08;97652.00;;;19.98;60.16
57628;BME280;43451;49.060;10.616;2023-09-30T12:41:43;97632.78;;;20.11;55.91
57628;BME280;43451;49.060;10.616;2023-09-30T12:44:09;97633.09;;;20.13;56.62
57628;BME280;43451;49.060;10.616;2023-09-30T12:46:36;97625.63;;;19.97;58.03
57628;BME280;43451;49.060;10.616;2023-09-30T12:49:09;97626.94;;;19.92;54.78
57628;BME280;43451;49.060;10.616;2023-09-30T12:51:35;97624.31;;;19.69;58.96
57628;BME280;43451;49.060;10.616;2023-09-30T12:54:02;97624.31;;;19.69;59.25
57628;BME280;43451;49.060;10.616;2023-09-30T12:56:27;97625.72;;;19.77;59.68
57628;BME280;43451;49.060;10.616;2023-09-30T12:58:56;97635.06;;;19.63;64.13
57628;BME280;43451;49.060;10.616;2023-09-30T13:01:22;97633.44;;;19.66;61.03
57628;BME280;43451;49.060;10.616;2023-09-30T13:03:49;97640.66;;;19.60;59.60
57628;BME280;43451;49.060;10.616;2023-09-30T13:06:14;97632.09;;;19.38;61.43
57628;BME280;43451;49.060;10.616;2023-09-30T13:08:41;97621.75;;;19.25;62.47
57628;BME280;43451;49.060;10.616;2023-09-30T13:11:08;97624.41;;;19.29;63.36
57628;BME280;43451;49.060;10.616;2023-09-30T13:13:34;97626.75;;;19.47;59.98
57628;BME280;43451;49.060;10.616;2023-09-30T13:16:02;97619.44;;;19.57;57.50
57628;BME280;43451;49.060;10.616;2023-09-30T13:18:30;97621.91;;;19.71;59.77
57628;BME280;43451;49.060;10.616;2023-09-30T13:20:56;97623.03;;;19.74;57.29
57628;BME280;43451;49.060;10.616;2023-09-30T13:23:22;97629.50;;;19.83;57.95
57628;BME280;43451;49.060;10.616;2023-09-30T13:25:47;97615.38;;;19.81;56.76
57628;BME280;43451;49.060;10.616;2023-09-30T13:28:14;97614.00;;;19.73;60.31
57628;BME280;43451;49.060;10.616;2023-09-30T13:30:39;97611.44;;;19.46;59.87
57628;BME280;43451;49.060;10.616;2023-09-30T13:33:04;97606.94;;;19.36;57.63
57628;BME280;43451;49.060;10.616;2023-09-30T13:35:31;97606.78;;;19.43;57.78
57628;BME280;43451;49.060;10.616;2023-09-30T13:37:57;97600.75;;;19.48;63.09
57628;BME280;43451;49.060;10.616;2023-09-30T13:40:23;97601.94;;;19.67;58.82
57628;BME280;43451;49.060;10.616;2023-09-30T13:42:48;97601.56;;;19.65;61.68
57628;BME280;43451;49.060;10.616;2023-09-30T13:45:14;97597.28;;;19.80;55.54
57628;BME280;43451;49.060;10.616;2023-09-30T13:47:42;97604.84;;;19.92;53.85
57628;BME280;43451;49.060;10.616;2023-09-30T13:50:08;97602.06;;;19.60;60.62